Jacksonville, FL

4:52 AM EDT on April 26, 2015 (GMT -0400)
Fernandina Beach | | Change Station
CLOSE
Current Station
Airport
Location: Fernandina Beach,
Elevation: 16 ft
Nearby Weather Stations

Elev 16 ft 30.61 °N, 81.46 °W | Updated 17 minutes ago

Partly Cloudy
Partly Cloudy
77 °F
Feels Like 77 °F
N
9
Wind Variable Wind from SW

Today
High -- | Low -- °F
--% Chance of Precip.
Yesterday
High -- | Low -- °F
Precip. -- in
6:48 AM 8:01 PM
First Quarter, 53% visible
Pressure 29.68 in
Visibility 10.0 miles
Clouds Clear
Dew Point 72 °F
Humidity 83%
Rainfall 0.00 in
Snow Depth Not available.
UV 0 out of 12
Pollen 7.20 out of 12
Air Quality Not available.
Flu Activity Local Activity
METAR KFHB 260835Z AUTO 23008KT 10SM CLR 25/22 A2968 RMK AO1

More Conditions Fewer Conditions

Pressure 29.68 in
Visibility 10.0 miles
Clouds Clear
Dew Point 72 °F
Humidity 83%
Rainfall 0.00 in
Snow Depth Not available.
UV 0 out of 12
Pollen 7.20 out of 12
Air Quality Not available.
Flu Activity Local Activity
METAR KFHB 260835Z AUTO 23008KT 10SM CLR 25/22 A2968 RMK AO1

More Conditions Fewer Conditions

The full scope of the disaster following a powerful 7.8-magnitude earthquake in Nepal may not come into view for days, but global charities are already sending emergency aid. Click to see how you can help.

10-Day Weather Forecast

Almanac

Astronomy

Apr. 26, 2015 Rise Set
Actual Time
Civil Twilight
Nautical Twilight
Astronomical Twilight
Moon
Length of Visible Light
Length of Day
Tomorrow will be .
, % of the Moon is Illuminated

Today's Extremes

State Highs State Lows

Community

WunderPhotos

Upload Photos

1,816,953 photos uploaded!

WunderBlogs® & News

Nearby

Air Quality

  Air Quality AQ Index Pollutant
Not available.

Snow Depth

Station Depth Elevation

Earthquake Activity

City Distance Mag. Time & Date
Minimum magnitude displayed is 2.5.

Coastal Water Temperatures

Place Temperature

Stations

Nearby Weather Stations

Station Location Temp. Windchill Dew Point Humidity Wind Precip. Elev Updated Type